Time;durP1;ratioP1;P1;durP2;ratioP2;P2;SDS_P1;SDS_P2;PMS_P1;PMS_P2;Temp;Humidity;BMP_temperature;BMP_pressure;BME280_temperature;BME280_humidity;BME280_pressure;Samples;Min_cycle;Max_cycle;Signal;HPM_P1;HPM_P2
2023/10/04 00:00:21;;;;;;;15.25;10.82;;;;;;;11.99;nan;95785.81;5046017;28;20199;-65
2023/10/04 00:02:50;;;;;;;16.35;9.82;;;;;;;11.90;nan;95786.06;5044618;28;20222;-66
2023/10/04 00:05:17;;;;;;;13.82;9.15;;;;;;;11.96;nan;95785.91;5044202;28;20195;-64
2023/10/04 00:07:45;;;;;;;17.20;11.07;;;;;;;11.90;nan;95770.78;5044335;28;20206;-65
2023/10/04 00:10:12;;;;;;;15.02;10.32;;;;;;;11.88;nan;95777.63;5042598;28;20253;-64
2023/10/04 00:12:39;;;;;;;11.30;10.13;;;;;;;11.90;nan;95775.88;5036237;28;20276;-63
2023/10/04 00:15:09;;;;;;;15.55;10.00;;;;;;;11.81;nan;95771.88;5039555;28;20672;-64
2023/10/04 00:17:40;;;;;;;23.00;10.95;;;;;;;11.76;nan;95772.84;5042207;28;20228;-62
2023/10/04 00:20:10;;;;;;;13.23;9.50;;;;;;;11.79;nan;95771.09;5041116;28;20799;-65
2023/10/04 00:22:37;;;;;;;14.90;9.65;;;;;;;11.73;nan;95768.66;5038292;28;20227;-65
2023/10/04 00:25:09;;;;;;;12.98;9.77;;;;;;;11.70;nan;95761.09;5041728;28;20290;-66
2023/10/04 00:27:36;;;;;;;15.05;10.63;;;;;;;11.72;nan;95776.34;5043191;28;20767;-65
2023/10/04 00:30:16;;;;;;;13.15;10.02;;;;;;;11.68;nan;95779.84;5035807;28;20221;-63
2023/10/04 00:32:46;;;;;;;12.13;9.98;;;;;;;11.66;nan;95773.97;5041475;28;20210;-65
2023/10/04 00:35:15;;;;;;;16.38;9.68;;;;;;;11.72;nan;95776.34;5039182;28;20801;-66
2023/10/04 00:37:43;;;;;;;17.13;10.20;;;;;;;11.63;nan;95774.88;5034645;28;20207;-65
2023/10/04 00:40:15;;;;;;;13.70;9.18;;;;;;;11.54;nan;95775.97;5042940;28;20298;-63
2023/10/04 00:42:42;;;;;;;16.67;10.45;;;;;;;11.55;nan;95775.09;5042890;28;20307;-64
2023/10/04 00:45:13;;;;;;;19.58;10.20;;;;;;;11.52;nan;95776.88;5043819;28;20206;-66
2023/10/04 00:47:42;;;;;;;15.80;10.50;;;;;;;11.55;nan;95769.16;5044090;28;20215;-65
2023/10/04 00:50:16;;;;;;;14.38;9.52;;;;;;;11.49;nan;95769.31;5044286;28;20226;-65
2023/10/04 00:52:46;;;;;;;17.55;10.30;;;;;;;11.38;nan;95759.44;5044733;28;20211;-65
2023/10/04 00:55:16;;;;;;;13.95;9.98;;;;;;;11.43;nan;95767.75;5042265;28;20584;-65
2023/10/04 00:57:43;;;;;;;16.83;10.40;;;;;;;11.48;nan;95765.94;5044828;28;20199;-65
2023/10/04 01:00:11;;;;;;;14.48;9.82;;;;;;;11.64;nan;95768.06;5043916;28;20231;-64
2023/10/04 01:02:38;;;;;;;15.80;10.13;;;;;;;11.60;nan;95767.34;5043526;28;20576;-63
2023/10/04 01:05:07;;;;;;;14.25;9.90;;;;;;;11.59;nan;95774.16;5041814;28;20620;-64
2023/10/04 01:07:38;;;;;;;18.88;9.75;;;;;;;11.62;nan;95777.47;5042407;28;20217;-63
2023/10/04 01:10:06;;;;;;;12.85;9.25;;;;;;;11.59;nan;95769.06;5039985;28;20290;-65
2023/10/04 01:12:33;;;;;;;12.68;10.23;;;;;;;11.64;nan;95776.53;5035169;28;20233;-64
2023/10/04 01:15:28;;;;;;;15.13;9.82;;;;;;;11.57;nan;95773.34;5042302;28;20231;-64
2023/10/04 01:17:48;;;;;;;14.88;10.30;;;;;;;11.57;nan;95778.44;5036759;28;20230;-64
2023/10/04 01:20:16;;;;;;;13.60;10.30;;;;;;;11.56;nan;95781.84;5038705;28;20214;-64
2023/10/04 01:22:44;;;;;;;14.75;10.00;;;;;;;11.44;nan;95781.31;5040598;28;20223;-64
2023/10/04 01:25:12;;;;;;;14.85;9.82;;;;;;;11.45;nan;95775.34;5044053;28;20631;-65
2023/10/04 01:27:41;;;;;;;13.85;9.30;;;;;;;11.60;nan;95782.63;5043944;28;20231;-63
2023/10/04 01:30:13;;;;;;;15.68;9.95;;;;;;;11.55;nan;95775.09;5035809;28;20207;-63
2023/10/04 01:32:40;;;;;;;16.08;10.45;;;;;;;11.48;nan;95782.91;5037932;28;20209;-64
2023/10/04 01:35:07;;;;;;;14.73;10.07;;;;;;;11.57;nan;95782.69;5042355;28;20206;-64
2023/10/04 01:37:35;;;;;;;12.02;9.40;;;;;;;11.47;nan;95771.06;5040221;28;20294;-64
2023/10/04 01:40:07;;;;;;;11.25;9.55;;;;;;;11.41;nan;95782.22;5041732;28;20206;-65
2023/10/04 01:42:34;;;;;;;11.95;9.75;;;;;;;11.42;nan;95778.81;5040294;28;20199;-65
2023/10/04 01:45:01;;;;;;;18.95;10.63;;;;;;;11.37;nan;95774.72;5045252;28;20650;-64
2023/10/04 01:47:27;;;;;;;18.48;10.90;;;;;;;11.25;nan;95774.16;5045898;28;20199;-66
2023/10/04 01:49:54;;;;;;;13.63;10.02;;;;;;;11.30;nan;95774.03;5044732;28;20206;-63
2023/10/04 01:52:21;;;;;;;17.65;11.02;;;;;;;11.23;nan;95767.44;5045481;28;21006;-63
2023/10/04 01:54:47;;;;;;;13.80;9.82;;;;;;;11.24;nan;95774.19;5045487;28;20288;-64
2023/10/04 01:57:18;;;;;;;18.25;10.27;;;;;;;11.21;nan;95774.25;5045324;28;20268;-65
2023/10/04 01:59:45;;;;;;;11.75;9.05;;;;;;;11.21;nan;95769.16;5045409;28;20757;-65
2023/10/04 02:02:12;;;;;;;16.00;9.95;;;;;;;11.10;nan;95763.53;5045758;28;20203;-65
2023/10/04 02:04:39;;;;;;;23.95;10.10;;;;;;;10.98;nan;95766.34;5045185;28;20231;-64
2023/10/04 02:07:05;;;;;;;15.05;9.60;;;;;;;10.90;nan;95764.81;5044573;28;20280;-65
2023/10/04 02:09:33;;;;;;;19.55;10.80;;;;;;;11.12;nan;95771.97;5045431;28;20657;-63
2023/10/04 02:12:01;;;;;;;13.40;10.48;;;;;;;11.06;nan;95770.41;5044769;28;20241;-67
2023/10/04 02:14:30;;;;;;;19.73;10.95;;;;;;;11.04;nan;95777.22;5044864;28;20298;-64
2023/10/04 02:16:58;;;;;;;14.25;9.45;;;;;;;11.07;nan;95776.31;5044598;28;20640;-64
2023/10/04 02:19:25;;;;;;;19.52;10.07;;;;;;;11.17;nan;95772.66;5045485;28;20247;-65
2023/10/04 02:21:51;;;;;;;14.48;10.52;;;;;;;11.06;nan;95774.66;5045178;28;20203;-65
2023/10/04 02:24:18;;;;;;;16.45;10.13;;;;;;;11.07;nan;95766.16;5045474;28;20262;-62
2023/10/04 02:26:45;;;;;;;14.50;10.43;;;;;;;11.06;nan;95779.72;5045276;28;20226;-65
2023/10/04 02:29:12;;;;;;;16.40;10.95;;;;;;;10.98;nan;95773.97;5044970;28;20296;-64
2023/10/04 02:31:41;;;;;;;22.05;11.77;;;;;;;11.04;nan;95778.94;5044567;28;20232;-65
2023/10/04 02:34:08;;;;;;;18.30;10.93;;;;;;;11.24;nan;95769.09;5043835;28;20672;-64
2023/10/04 02:36:37;;;;;;;16.00;10.55;;;;;;;11.31;nan;95775.72;5043562;28;20235;-65
2023/10/04 02:39:07;;;;;;;17.00;10.15;;;;;;;11.17;nan;95772.66;5045234;28;20241;-64
2023/10/04 02:41:33;;;;;;;14.32;10.32;;;;;;;11.23;nan;95772.53;5044361;28;20671;-64
2023/10/04 02:44:03;;;;;;;18.05;10.50;;;;;;;11.27;nan;95781.75;5044488;28;20379;-64
2023/10/04 02:46:30;;;;;;;20.13;10.90;;;;;;;11.44;nan;95782.16;5044985;28;20280;-64
2023/10/04 02:49:00;;;;;;;14.75;10.57;;;;;;;11.36;nan;95779.00;5044917;28;20242;-65
2023/10/04 02:51:27;;;;;;;15.30;11.68;;;;;;;11.17;nan;95775.19;5044934;28;20599;-64
2023/10/04 02:53:54;;;;;;;14.93;11.88;;;;;;;11.35;nan;95773.94;5045657;28;20202;-64
2023/10/04 02:56:23;;;;;;;19.05;10.52;;;;;;;11.43;nan;95770.31;5043498;28;20213;-64
2023/10/04 02:58:49;;;;;;;18.05;11.27;;;;;;;11.40;nan;95775.47;5043828;28;20214;-64
2023/10/04 03:01:22;;;;;;;17.92;10.93;;;;;;;11.25;nan;95766.53;5044904;28;20203;-65
2023/10/04 03:03:51;;;;;;;15.35;10.68;;;;;;;11.20;nan;95775.13;5042662;28;20245;-62
2023/10/04 03:06:22;;;;;;;18.42;12.35;;;;;;;11.09;nan;95777.97;5043421;28;20207;-62
2023/10/04 03:08:50;;;;;;;23.88;14.00;;;;;;;10.92;nan;95772.41;5042600;28;20650;-65
2023/10/04 03:11:19;;;;;;;17.88;14.18;;;;;;;10.92;nan;95774.97;5044808;28;20286;-64
2023/10/04 03:13:47;;;;;;;18.80;12.70;;;;;;;10.84;nan;95767.53;5043041;28;20202;-63
2023/10/04 03:16:14;;;;;;;22.60;17.15;;;;;;;10.83;nan;95776.03;5043355;28;20191;-64
2023/10/04 03:18:41;;;;;;;29.40;18.73;;;;;;;10.97;nan;95775.69;5043473;28;20203;-64
2023/10/04 03:21:16;;;;;;;23.63;18.10;;;;;;;10.97;nan;95774.84;5044306;28;20221;-63
2023/10/04 03:23:44;;;;;;;27.48;19.02;;;;;;;10.89;nan;95775.84;5044879;28;20219;-65
2023/10/04 03:26:12;;;;;;;22.70;18.08;;;;;;;10.75;nan;95782.16;5044258;28;20288;-65
2023/10/04 03:28:39;;;;;;;30.00;20.50;;;;;;;10.69;nan;95780.56;5043635;28;20226;-65
2023/10/04 03:31:10;;;;;;;32.05;22.02;;;;;;;10.61;nan;95774.84;5043223;28;20219;-64
2023/10/04 03:33:37;;;;;;;31.35;23.83;;;;;;;10.56;nan;95784.28;5044196;28;20269;-67
2023/10/04 03:36:06;;;;;;;27.20;20.10;;;;;;;10.73;nan;95774.56;5044448;28;20327;-67
2023/10/04 03:38:33;;;;;;;29.35;21.10;;;;;;;10.79;nan;95771.03;5043928;28;20230;-66
2023/10/04 03:41:03;;;;;;;27.73;19.63;;;;;;;10.58;nan;95757.13;5044037;28;20207;-65
2023/10/04 03:43:30;;;;;;;27.23;16.17;;;;;;;10.63;nan;95775.66;5044865;28;20222;-64
2023/10/04 03:45:57;;;;;;;22.48;14.95;;;;;;;10.69;nan;95779.75;5044333;28;20739;-66
2023/10/04 03:48:24;;;;;;;26.98;14.48;;;;;;;10.58;nan;95780.00;5043982;28;20207;-62
2023/10/04 03:50:53;;;;;;;26.20;15.85;;;;;;;10.46;nan;95785.34;5044911;28;20588;-63
2023/10/04 03:53:21;;;;;;;22.40;14.02;;;;;;;10.45;nan;95786.19;5044888;28;20202;-61
2023/10/04 03:55:49;;;;;;;26.08;13.45;;;;;;;10.44;nan;95789.59;5043850;28;20210;-61
2023/10/04 03:58:19;;;;;;;24.33;13.43;;;;;;;10.46;nan;95780.25;5044277;28;20209;-64
2023/10/04 04:00:46;;;;;;;24.60;17.15;;;;;;;10.48;nan;95788.69;5045437;28;20207;-64
2023/10/04 04:03:13;;;;;;;30.90;19.40;;;;;;;10.69;nan;95775.50;5044422;28;20527;-64
2023/10/04 04:05:42;;;;;;;43.45;23.55;;;;;;;10.73;nan;95783.88;5042197;28;20707;-63
2023/10/04 04:08:09;;;;;;;46.22;30.75;;;;;;;10.69;nan;95775.50;5042271;28;20265;-64
2023/10/04 04:10:36;;;;;;;30.27;17.02;;;;;;;10.60;nan;95772.34;5043326;28;20214;-64
2023/10/04 04:13:02;;;;;;;25.95;15.50;;;;;;;10.56;nan;95776.66;5043492;28;20203;-65
2023/10/04 04:15:34;;;;;;;29.48;14.60;;;;;;;10.54;nan;95778.38;5043391;28;20201;-68
2023/10/04 04:18:03;;;;;;;25.58;15.40;;;;;;;10.41;nan;95770.19;5043184;28;20227;-64
2023/10/04 04:20:31;;;;;;;26.35;13.95;;;;;;;10.51;nan;95779.28;5043674;28;20214;-65
2023/10/04 04:22:58;;;;;;;19.45;13.23;;;;;;;10.55;nan;95774.97;5043878;28;20203;-66
2023/10/04 04:25:26;;;;;;;33.28;16.27;;;;;;;10.58;nan;95780.00;5043004;28;20377;-64
2023/10/04 04:27:56;;;;;;;36.42;21.95;;;;;;;10.63;nan;95775.66;5042804;28;21507;-67
2023/10/04 04:30:28;;;;;;;47.38;24.38;;;;;;;10.57;nan;95773.25;5042245;28;20214;-67
2023/10/04 04:32:56;;;;;;;29.60;14.88;;;;;;;10.61;nan;95772.31;5042475;28;20679;-66
2023/10/04 04:35:34;;;;;;;18.48;12.88;;;;;;;10.73;nan;95779.63;5043236;28;20289;-65
2023/10/04 04:38:09;;;;;;;26.95;12.80;;;;;;;10.67;nan;95782.31;5042686;28;20213;-65
2023/10/04 04:40:38;;;;;;;22.05;12.05;;;;;;;10.77;nan;95777.88;5042528;28;20216;-62
2023/10/04 04:43:18;;;;;;;23.52;14.35;;;;;;;10.84;nan;95770.06;5042316;28;20729;-66
2023/10/04 04:45:49;;;;;;;54.50;25.95;;;;;;;10.94;nan;95777.47;5043007;28;20199;-66
2023/10/04 04:48:18;;;;;;;45.30;24.60;;;;;;;11.07;nan;95776.31;5042643;28;20703;-65
2023/10/04 04:50:47;;;;;;;32.00;19.10;;;;;;;11.23;nan;95777.59;5043449;28;20272;-67
2023/10/04 04:53:17;;;;;;;28.52;14.45;;;;;;;11.20;nan;95775.97;5042882;28;20290;-66
2023/10/04 04:55:44;;;;;;;26.90;14.30;;;;;;;11.20;nan;95781.06;5042973;28;20203;-66
2023/10/04 04:58:13;;;;;;;36.30;14.50;;;;;;;11.37;nan;95785.75;5042869;28;20219;-66
2023/10/04 05:00:42;;;;;;;34.38;14.38;;;;;;;11.49;nan;95784.59;5041454;28;20310;-65
2023/10/04 05:03:09;;;;;;;27.30;14.80;;;;;;;11.64;nan;95791.81;5042873;28;20203;-67
2023/10/04 05:05:37;;;;;;;28.40;14.70;;;;;;;11.74;nan;95792.41;5042319;28;20258;-65
2023/10/04 05:08:05;;;;;;;35.03;14.48;;;;;;;11.99;nan;95790.91;5040958;28;20207;-63
2023/10/04 05:10:37;;;;;;;23.40;13.23;;;;;;;12.16;nan;95793.81;5041319;28;20233;-66
2023/10/04 05:13:04;;;;;;;20.05;12.35;;;;;;;12.30;nan;95784.97;5041361;28;20560;-62
2023/10/04 05:15:33;;;;;;;24.77;12.38;;;;;;;12.45;nan;95789.63;5041078;28;20241;-65
2023/10/04 05:18:03;;;;;;;22.27;12.18;;;;;;;12.58;nan;95791.78;5041124;28;20229;-65
2023/10/04 05:20:32;;;;;;;23.55;13.65;;;;;;;12.57;nan;95794.38;5044361;28;20598;-68
2023/10/04 05:23:00;;;;;;;24.60;13.13;;;;;;;12.67;nan;95798.28;5043956;28;20203;-65
2023/10/04 05:25:28;;;;;;;20.52;13.80;;;;;;;12.71;nan;95796.50;5044132;28;20320;-65
2023/10/04 05:28:03;;;;;;;29.42;15.50;;;;;;;12.87;nan;95798.53;5045014;28;20317;-66
2023/10/04 05:30:30;;;;;;;29.27;14.48;;;;;;;12.99;nan;95796.47;5045528;28;20215;-66
2023/10/04 05:32:57;;;;;;;24.60;13.32;;;;;;;13.35;nan;95792.81;5046022;28;20688;-66
2023/10/04 05:35:24;;;;;;;36.30;13.88;;;;;;;13.79;nan;95796.41;5045483;28;20720;-66
2023/10/04 05:37:51;;;;;;;25.40;14.05;;;;;;;14.15;nan;95801.94;5046124;28;20231;-66
2023/10/04 05:40:25;;;;;;;35.80;15.00;;;;;;;14.34;nan;95808.97;5046112;28;20203;-64
2023/10/04 05:42:53;;;;;;;25.80;13.10;;;;;;;14.31;nan;95799.69;5046197;28;20280;-63
2023/10/04 05:45:20;;;;;;;25.10;12.88;;;;;;;14.50;nan;95807.53;5046222;28;20255;-64
2023/10/04 05:47:48;;;;;;;18.55;12.73;;;;;;;14.67;nan;95810.28;5045925;28;20207;-66
2023/10/04 05:50:17;;;;;;;24.10;12.70;;;;;;;14.82;nan;95812.28;5046657;28;20218;-66
2023/10/04 05:52:44;;;;;;;23.10;12.43;;;;;;;14.71;nan;95822.09;5046356;28;20217;-66
2023/10/04 05:55:11;;;;;;;25.90;12.65;;;;;;;14.66;nan;95820.59;5045540;28;20758;-66
2023/10/04 05:57:39;;;;;;;26.40;14.13;;;;;;;14.59;nan;95825.13;5045496;28;20230;-67
2023/10/04 06:00:21;;;;;;;26.02;13.43;;;;;;;14.57;nan;95832.00;5045369;28;20239;-68
2023/10/04 06:02:49;;;;;;;22.50;13.27;;;;;;;14.50;nan;95822.88;5045379;28;20289;-65
2023/10/04 06:05:19;;;;;;;22.58;13.65;;;;;;;14.41;nan;95820.66;5044221;28;20732;-65
2023/10/04 06:07:46;;;;;;;37.38;16.45;;;;;;;14.52;nan;95826.22;5045498;28;20210;-65
2023/10/04 06:10:13;;;;;;;38.53;17.48;;;;;;;14.50;nan;95821.16;5045985;28;20246;-66
2023/10/04 06:12:42;;;;;;;25.85;14.20;;;;;;;14.60;nan;95826.75;5045554;28;20242;-67
2023/10/04 06:15:13;;;;;;;28.80;13.70;;;;;;;14.63;nan;95822.34;5045943;28;20661;-65
2023/10/04 06:17:42;;;;;;;22.90;14.02;;;;;;;14.72;nan;95825.47;5045582;28;20203;-66
2023/10/04 06:20:23;;;;;;;20.88;11.93;;;;;;;14.82;nan;95827.66;5044949;28;20235;-66
2023/10/04 06:22:50;;;;;;;25.77;13.07;;;;;;;15.34;nan;95825.63;5045987;28;20199;-64
2023/10/04 06:25:17;;;;;;;25.98;15.60;;;;;;;16.01;nan;95832.28;5044646;28;20238;-64
2023/10/04 06:27:45;;;;;;;32.20;13.15;;;;;;;16.58;nan;95824.56;5044846;28;20655;-66
2023/10/04 06:30:13;;;;;;;29.25;17.00;;;;;;;16.88;nan;95824.97;5045109;28;20309;-64
2023/10/04 06:32:40;;;;;;;27.75;14.43;;;;;;;18.04;nan;95827.09;5045702;28;20836;-65
2023/10/04 06:35:08;;;;;;;29.05;15.13;;;;;;;18.89;nan;95821.78;5044666;28;20203;-67
2023/10/04 06:37:36;;;;;;;25.13;14.43;;;;;;;18.49;nan;95812.75;5045011;28;20202;-65
2023/10/04 06:40:04;;;;;;;38.13;18.63;;;;;;;18.15;nan;95823.94;5045132;28;20203;-67
2023/10/04 06:42:31;;;;;;;34.80;17.50;;;;;;;17.77;nan;95828.47;5044028;28;20264;-65
2023/10/04 06:44:59;;;;;;;27.15;15.00;;;;;;;17.43;nan;95835.22;5045076;28;20661;-67
2023/10/04 06:47:27;;;;;;;41.95;20.63;;;;;;;17.30;nan;95836.72;5045365;28;20638;-66
2023/10/04 06:49:54;;;;;;;62.35;26.98;;;;;;;17.19;nan;95836.38;5044836;28;20580;-64
2023/10/04 06:52:20;;;;;;;41.28;20.92;;;;;;;17.34;nan;95840.78;5043978;28;20199;-64
2023/10/04 06:54:47;;;;;;;31.52;16.17;;;;;;;17.47;nan;95839.28;5043821;28;20295;-67
2023/10/04 06:57:14;;;;;;;25.17;15.70;;;;;;;17.71;nan;95834.72;5044859;28;20293;-66
2023/10/04 06:59:40;;;;;;;29.88;14.55;;;;;;;17.89;nan;95832.97;5045106;28;20207;-66
2023/10/04 07:02:09;;;;;;;22.70;14.27;;;;;;;18.13;nan;95836.06;5044920;28;20278;-66
2023/10/04 07:04:36;;;;;;;21.75;14.90;;;;;;;17.95;nan;95837.81;5044548;28;20309;-67
2023/10/04 07:07:02;;;;;;;21.55;13.93;;;;;;;17.68;nan;95842.59;5043715;28;20264;-66
2023/10/04 07:09:29;;;;;;;23.00;13.63;;;;;;;17.73;nan;95837.22;5042874;28;20212;-66
2023/10/04 07:11:56;;;;;;;24.73;14.32;;;;;;;18.50;nan;95830.69;5042728;28;20685;-65
2023/10/04 07:14:22;;;;;;;28.63;14.07;;;;;;;20.50;nan;95828.00;5042210;28;20207;-66
2023/10/04 07:16:49;;;;;;;20.63;13.63;;;;;;;21.60;nan;95821.94;5042604;28;20711;-68
2023/10/04 07:19:18;;;;;;;30.85;13.32;;;;;;;21.35;nan;95814.94;5043038;28;20203;-68
2023/10/04 07:21:44;;;;;;;20.75;14.25;;;;;;;21.09;nan;95823.47;5042279;28;20195;-66
2023/10/04 07:24:11;;;;;;;21.63;13.35;;;;;;;20.85;nan;95805.16;5041921;28;20234;-66
2023/10/04 07:26:38;;;;;;;31.70;14.27;;;;;;;20.63;nan;95807.44;5043363;28;20238;-68
2023/10/04 07:29:04;;;;;;;23.10;12.82;;;;;;;20.41;nan;95801.91;5044208;28;20210;-65
2023/10/04 07:31:34;;;;;;;30.95;13.20;;;;;;;20.18;nan;95806.66;5044318;28;20316;-67
2023/10/04 07:34:01;;;;;;;26.52;14.23;;;;;;;20.10;nan;95808.88;5043956;28;20230;-66
2023/10/04 07:36:29;;;;;;;23.73;15.52;;;;;;;19.97;nan;95803.63;5043611;28;20218;-64
2023/10/04 07:38:56;;;;;;;18.65;12.85;;;;;;;20.11;nan;95807.94;5043833;28;21760;-63
2023/10/04 07:41:22;;;;;;;20.88;12.50;;;;;;;20.87;nan;95797.31;5042243;28;20211;-65
2023/10/04 07:43:49;;;;;;;22.77;13.27;;;;;;;21.69;nan;95800.66;5044198;28;20262;-65
2023/10/04 07:46:18;;;;;;;18.75;11.68;;;;;;;24.34;nan;95792.19;5044332;28;20227;-66
2023/10/04 07:48:44;;;;;;;18.73;10.77;;;;;;;28.47;nan;95784.94;5044414;28;20195;-67
2023/10/04 07:51:11;;;;;;;19.38;11.63;;;;;;;31.17;nan;95787.91;5043488;28;20294;-67
2023/10/04 07:53:39;;;;;;;24.42;12.40;;;;;;;32.77;nan;95784.59;5042595;28;20211;-65
2023/10/04 07:56:08;;;;;;;17.17;12.10;;;;;;;34.32;nan;95777.34;5042266;28;20214;-66
2023/10/04 07:58:36;;;;;;;19.23;10.65;;;;;;;35.54;nan;95773.22;5043733;28;20306;-66
2023/10/04 08:01:03;;;;;;;14.30;10.50;;;;;;;36.25;nan;95770.59;5043595;28;20704;-64
2023/10/04 08:03:30;;;;;;;18.48;12.23;;;;;;;36.93;nan;95769.78;5042020;28;20199;-67
2023/10/04 08:05:56;;;;;;;21.48;10.93;;;;;;;37.25;nan;95760.38;5042724;28;20230;-67
2023/10/04 08:08:23;;;;;;;21.80;11.63;;;;;;;37.98;nan;95757.84;5042588;28;20672;-67
2023/10/04 08:10:51;;;;;;;13.32;10.82;;;;;;;37.95;nan;95759.06;5043773;28;20201;-63
2023/10/04 08:13:18;;;;;;;19.80;11.30;;;;;;;38.15;nan;95764.38;5044124;28;20238;-67
2023/10/04 08:15:46;;;;;;;19.20;11.13;;;;;;;38.02;nan;95754.56;5043052;28;20207;-66
2023/10/04 08:18:16;;;;;;;14.18;10.55;;;;;;;37.97;nan;95757.00;5043207;28;20210;-65
2023/10/04 08:20:43;;;;;;;16.52;10.50;;;;;;;37.67;nan;95751.28;5042911;28;20301;-69
2023/10/04 08:23:10;;;;;;;19.05;10.77;;;;;;;37.13;nan;95749.47;5043350;28;20207;-68
2023/10/04 08:25:37;;;;;;;17.42;11.65;;;;;;;36.83;nan;95748.16;5042206;28;20231;-69
2023/10/04 08:28:08;;;;;;;15.70;11.50;;;;;;;36.79;nan;95745.09;5041680;28;20266;-68
2023/10/04 08:30:38;;;;;;;25.42;11.25;;;;;;;36.37;nan;95742.59;5042890;28;20246;-69
2023/10/04 08:33:05;;;;;;;19.98;12.40;;;;;;;36.01;nan;95742.72;5043429;28;20214;-69
2023/10/04 08:35:36;;;;;;;17.98;12.27;;;;;;;35.28;nan;95736.75;5043467;28;20222;-71
2023/10/04 08:38:04;;;;;;;18.42;11.70;;;;;;;34.29;nan;95747.88;5043020;28;20207;-70
2023/10/04 08:40:35;;;;;;;20.80;14.02;;;;;;;33.76;nan;95737.25;5043886;28;20224;-70
2023/10/04 08:43:04;;;;;;;22.65;13.85;;;;;;;33.58;nan;95742.03;5043244;28;20199;-67
2023/10/04 08:45:33;;;;;;;23.10;13.40;;;;;;;33.30;nan;95730.38;5043183;28;20343;-67
2023/10/04 08:48:01;;;;;;;18.73;14.20;;;;;;;33.09;nan;95736.25;5043032;28;20231;-68
2023/10/04 08:50:32;;;;;;;23.83;13.68;;;;;;;32.44;nan;95734.69;5043567;28;20211;-67
2023/10/04 08:53:04;;;;;;;22.10;10.88;;;;;;;32.19;nan;95733.06;5044462;28;20219;-67
2023/10/04 08:55:39;;;;;;;23.17;11.07;;;;;;;31.57;nan;95732.81;5047920;28;20207;-67
2023/10/04 08:58:07;;;;;;;19.80;15.18;;;;;;;30.75;nan;95725.72;5046749;28;20201;-68
2023/10/04 09:00:43;;;;;;;24.63;11.70;;;;;;;30.02;nan;95738.47;5047012;28;20250;-70
2023/10/04 09:03:12;;;;;;;19.70;11.82;;;;;;;28.87;nan;95725.31;5046581;28;20234;-68
2023/10/04 09:05:46;;;;;;;19.38;11.07;;;;;;;28.23;nan;95736.59;5046890;28;20763;-67
2023/10/04 09:08:12;;;;;;;23.05;10.43;;;;;;;27.66;nan;95742.75;5045435;28;20203;-69
2023/10/04 09:10:40;;;;;;;22.20;11.90;;;;;;;27.23;nan;95730.06;5045147;28;20222;-69
2023/10/04 09:13:09;;;;;;;25.15;15.32;;;;;;;27.08;nan;95740.09;5044955;28;20233;-68
2023/10/04 09:15:37;;;;;;;22.73;12.88;;;;;;;27.03;nan;95737.88;5045179;28;20210;-70
2023/10/04 09:18:05;;;;;;;16.88;12.52;;;;;;;27.09;nan;95732.13;5044587;28;20640;-68
2023/10/04 09:20:32;;;;;;;18.45;10.50;;;;;;;26.98;nan;95736.63;5044929;28;20298;-67
2023/10/04 09:23:00;;;;;;;20.52;11.13;;;;;;;26.59;nan;95730.50;5045314;28;20289;-68
2023/10/04 09:25:36;;;;;;;17.35;11.20;;;;;;;26.31;nan;95732.88;5045242;28;20257;-67
2023/10/04 09:28:04;;;;;;;20.05;11.55;;;;;;;26.15;nan;95727.28;5045962;28;20794;-68
2023/10/04 09:30:34;;;;;;;14.77;10.98;;;;;;;26.32;nan;95726.69;5046587;28;20250;-68
2023/10/04 09:33:04;;;;;;;18.77;10.93;;;;;;;25.81;nan;95718.88;5046673;28;20203;-69
2023/10/04 09:35:42;;;;;;;22.38;11.25;;;;;;;24.89;nan;95724.69;5046596;28;20211;-68
2023/10/04 09:38:15;;;;;;;19.08;10.30;;;;;;;24.84;nan;95712.03;5045451;28;20690;-67
2023/10/04 09:40:50;;;;;;;20.52;10.60;;;;;;;24.73;nan;95714.69;5046698;28;20218;-67
2023/10/04 09:43:17;;;;;;;19.75;11.05;;;;;;;24.57;nan;95715.03;5046358;28;20201;-67
2023/10/04 09:45:56;;;;;;;27.33;10.73;;;;;;;24.66;nan;95714.34;5046210;28;20253;-68
2023/10/04 09:48:25;;;;;;;19.67;10.75;;;;;;;24.87;nan;95705.78;5045436;28;20688;-68
2023/10/04 09:51:00;;;;;;;17.48;9.82;;;;;;;24.64;nan;95720.59;5046803;28;20387;-68
2023/10/04 09:53:27;;;;;;;15.23;10.32;;;;;;;24.57;nan;95722.03;5046036;28;20911;-68
2023/10/04 09:55:55;;;;;;;18.75;10.27;;;;;;;24.72;nan;95720.81;5045061;28;20207;-68
2023/10/04 09:58:24;;;;;;;18.30;10.73;;;;;;;24.79;nan;95714.16;5046087;28;20199;-67
2023/10/04 10:00:53;;;;;;;18.75;10.13;;;;;;;24.83;nan;95706.97;5046509;28;20292;-67
2023/10/04 10:03:27;;;;;;;15.02;9.55;;;;;;;24.65;nan;95707.47;5046969;28;20217;-68
2023/10/04 10:05:56;;;;;;;16.45;9.32;;;;;;;24.73;nan;95699.09;5045254;28;20233;-68
2023/10/04 10:08:26;;;;;;;15.00;8.80;;;;;;;24.97;nan;95696.31;5046352;28;20203;-68
2023/10/04 10:10:54;;;;;;;17.98;10.23;;;;;;;25.22;nan;95693.41;5046137;28;20223;-68
2023/10/04 10:13:22;;;;;;;17.88;8.57;;;;;;;25.36;nan;95698.28;5046037;28;20203;-67
2023/10/04 10:15:49;;;;;;;17.42;9.15;;;;;;;25.51;nan;95688.38;5045418;28;20269;-67
2023/10/04 10:18:17;;;;;;;13.05;9.32;;;;;;;25.73;nan;95690.06;5045708;28;20238;-69
2023/10/04 10:20:45;;;;;;;17.35;9.45;;;;;;;25.81;nan;95682.41;5045395;28;20207;-67
2023/10/04 10:23:16;;;;;;;15.30;9.55;;;;;;;25.94;nan;95677.00;5045524;28;20592;-67
2023/10/04 10:26:16;;;;;;;15.55;8.82;;;;;;;25.99;nan;95667.84;5045336;28;20234;-68
2023/10/04 10:28:45;;;;;;;18.55;10.60;;;;;;;25.72;nan;95662.38;5045077;28;20261;-67
2023/10/04 10:31:19;;;;;;;11.45;8.48;;;;;;;25.74;nan;95666.47;5045655;28;20231;-67
2023/10/04 10:33:47;;;;;;;16.52;9.07;;;;;;;25.69;nan;95663.47;5045074;28;20738;-67
2023/10/04 10:36:22;;;;;;;14.35;8.50;;;;;;;25.76;nan;95655.94;5045149;28;20203;-69
2023/10/04 10:38:50;;;;;;;18.08;8.35;;;;;;;25.90;nan;95653.00;5045620;28;20284;-68
2023/10/04 10:41:57;;;;;;;16.95;8.45;;;;;;;26.02;nan;95651.13;5045525;28;20376;-68
2023/10/04 10:44:30;;;;;;;14.48;8.07;;;;;;;26.14;nan;95642.28;5001896;28;20200;-67
2023/10/04 10:46:58;;;;;;;21.50;9.15;;;;;;;26.19;nan;95644.47;5039254;28;20258;-67
2023/10/04 10:49:51;;;;;;;17.50;10.00;;;;;;;26.20;nan;95646.97;5044975;28;20284;-68
2023/10/04 10:52:31;;;;;;;13.90;8.35;;;;;;;26.25;nan;95639.53;5033494;28;20203;-67
2023/10/04 10:55:00;;;;;;;12.77;8.85;;;;;;;26.28;nan;95643.66;5044897;28;20203;-67
2023/10/04 10:57:29;;;;;;;17.15;7.85;;;;;;;26.25;nan;95644.75;5044229;28;20231;-67
2023/10/04 10:59:56;;;;;;;11.70;7.72;;;;;;;26.24;nan;95642.28;5044323;28;20722;-68
2023/10/04 11:02:24;;;;;;;10.15;7.80;;;;;;;26.18;nan;95638.44;5044640;28;20247;-68
2023/10/04 11:04:51;;;;;;;15.15;7.10;;;;;;;26.22;nan;95629.41;5045167;28;20744;-67
2023/10/04 11:07:19;;;;;;;12.27;7.60;;;;;;;26.16;nan;95634.31;5043435;28;20304;-68
2023/10/04 11:09:51;;;;;;;14.05;7.53;;;;;;;26.19;nan;95629.69;5043976;28;20689;-67
2023/10/04 11:12:19;;;;;;;12.32;6.97;;;;;;;26.14;nan;95626.63;5042824;28;20273;-67
2023/10/04 11:14:46;;;;;;;14.50;7.88;;;;;;;25.94;nan;95630.13;5043914;28;20203;-68
2023/10/04 11:17:14;;;;;;;15.82;7.45;;;;;;;26.01;nan;95620.81;5040758;28;20210;-68
2023/10/04 11:19:41;;;;;;;11.07;8.70;;;;;;;26.09;nan;95618.38;5043121;28;20334;-68
2023/10/04 11:22:09;;;;;;;7.88;6.97;;;;;;;26.11;nan;95616.47;5042883;28;20233;-68
2023/10/04 11:24:36;;;;;;;11.05;7.82;;;;;;;26.22;nan;95608.56;5043451;28;20199;-68
2023/10/04 11:27:04;;;;;;;12.18;7.55;;;;;;;26.19;nan;95602.81;5041451;28;20757;-67
2023/10/04 11:29:33;;;;;;;15.50;8.43;;;;;;;26.15;nan;95594.41;5042707;28;20233;-69
2023/10/04 11:32:00;;;;;;;13.57;7.75;;;;;;;26.20;nan;95597.47;5043997;28;20227;-68
2023/10/04 11:34:27;;;;;;;14.57;7.63;;;;;;;26.22;nan;95600.75;5044525;28;20494;-68
2023/10/04 11:37:05;;;;;;;11.65;7.55;;;;;;;26.21;33.48;95603.50;5061118;27;21039;-68
2023/10/04 11:39:34;;;;;;;10.95;7.85;;;;;;;26.17;33.71;95597.72;5061372;28;20198;-68
2023/10/04 11:42:02;;;;;;;10.70;7.32;;;;;;;26.16;32.67;95597.84;5060572;28;20204;-68